Time;durP1;ratioP1;P1;durP2;ratioP2;P2;SDS_P1;SDS_P2;PMS_P1;PMS_P2;Temp;Humidity;BMP_temperature;BMP_pressure;BME280_temperature;BME280_humidity;BME280_pressure;Samples;Min_cycle;Max_cycle;Signal;HPM_P1;HPM_P2
2022/12/15 00:40:09;;;;;;;;;;;11.50;99.90;;;;;;4976842;28;20570;-58
2022/12/15 00:42:34;;;;;;;14.10;10.15;;;11.50;99.90;;;;;;4975835;28;19913;-57
2022/12/15 00:45:00;;;;;;;15.20;9.82;;;11.50;99.90;;;;;;4975931;28;20031;-58
2022/12/15 00:47:26;;;;;;;14.95;9.73;;;11.50;99.90;;;;;;4975930;28;20093;-58
2022/12/15 01:20:18;;;;;;;10.77;7.53;;;11.40;99.90;;;;;;4975458;28;20066;-58
2022/12/15 01:22:47;;;;;;;10.50;7.20;;;11.50;99.90;;;;;;4974860;28;20062;-58
2022/12/15 01:25:15;;;;;;;12.75;7.70;;;11.40;99.90;;;;;;4975141;28;20427;-58
2022/12/15 01:27:41;;;;;;;11.30;7.18;;;11.30;99.90;;;;;;4977663;28;20022;-58
2022/12/15 01:30:09;;;;;;;13.15;8.23;;;11.30;99.90;;;;;;4975088;28;20090;-58
2022/12/15 01:32:35;;;;;;;12.73;8.60;;;11.30;99.90;;;;;;4975013;28;20030;-57
2022/12/15 01:35:02;;;;;;;12.95;8.23;;;11.20;99.90;;;;;;4975013;28;20054;-58
2022/12/15 01:37:28;;;;;;;11.75;8.38;;;11.30;99.90;;;;;;4974716;28;20053;-58
2022/12/15 01:42:38;;;;;;;11.02;8.13;;;11.20;99.90;;;;;;4974938;28;20097;-58
2022/12/15 01:45:22;;;;;;;11.48;8.10;;;11.20;99.90;;;;;;4974860;28;20483;-58
2022/12/15 01:48:08;;;;;;;11.57;7.78;;;11.20;99.90;;;;;;4974768;28;20070;-57
2022/12/15 01:50:44;;;;;;;11.18;7.85;;;11.20;99.90;;;;;;4974341;28;20027;-58
2022/12/15 01:53:12;;;;;;;12.48;7.78;;;11.20;99.90;;;;;;4975172;28;20025;-58
2022/12/15 01:55:41;;;;;;;12.73;8.32;;;11.20;99.90;;;;;;4974710;28;20092;-58
2022/12/15 01:58:08;;;;;;;15.57;8.07;;;11.20;99.90;;;;;;4974661;28;20527;-58
2022/12/15 02:00:34;;;;;;;15.35;8.70;;;11.20;99.90;;;;;;4974711;28;20106;-58
2022/12/15 02:03:01;;;;;;;13.55;8.73;;;11.20;99.90;;;;;;4974646;28;20466;-58
2022/12/15 02:05:29;;;;;;;16.73;9.82;;;11.20;99.90;;;;;;4972981;28;20384;-58
2022/12/15 02:07:55;;;;;;;14.27;8.40;;;11.20;99.90;;;;;;4974836;28;20019;-58
2022/12/15 02:10:26;;;;;;;11.60;8.43;;;11.10;99.90;;;;;;4974404;28;20030;-58
2022/12/15 02:12:57;;;;;;;11.10;8.00;;;11.10;99.90;;;;;;4974324;28;20074;-58
2022/12/15 02:15:29;;;;;;;14.60;8.70;;;11.10;99.90;;;;;;4974279;28;20050;-59
2022/12/15 02:18:20;;;;;;;13.30;8.15;;;11.10;99.90;;;;;;4974192;28;20057;-57
2022/12/15 02:21:03;;;;;;;12.30;8.30;;;11.10;99.90;;;;;;4973679;28;20034;-58
2022/12/15 02:23:44;;;;;;;11.57;8.13;;;11.10;99.90;;;;;;4974548;28;20038;-58
2022/12/15 02:26:18;;;;;;;12.40;7.57;;;11.10;99.90;;;;;;4974290;28;20039;-59
2022/12/15 02:29:17;;;;;;;11.50;8.15;;;11.10;99.90;;;;;;4976403;28;20031;-57
2022/12/15 02:32:06;;;;;;;14.52;8.95;;;11.10;99.90;;;;;;4963425;28;20049;-58
2022/12/15 02:35:15;;;;;;;9.75;7.75;;;11.10;99.90;;;;;;4973549;28;20373;-57
2022/12/15 02:37:43;;;;;;;13.07;8.90;;;11.10;99.90;;;;;;4973825;28;20476;-58
2022/12/15 02:40:10;;;;;;;12.90;8.10;;;11.10;99.90;;;;;;4973758;28;20023;-58
2022/12/15 02:42:44;;;;;;;16.00;8.63;;;11.10;99.90;;;;;;4973691;28;20395;-58
2022/12/15 02:45:14;;;;;;;11.63;8.40;;;11.00;99.90;;;;;;4974099;28;20511;-58
2022/12/15 02:47:44;;;;;;;10.55;7.97;;;11.10;99.90;;;;;;4973739;28;20027;-57
2022/12/15 02:50:34;;;;;;;13.98;7.95;;;11.00;99.90;;;;;;4973381;28;20109;-58
2022/12/15 02:53:24;;;;;;;13.27;8.25;;;11.00;99.90;;;;;;4973643;28;20027;-58
2022/12/15 02:56:03;;;;;;;12.10;8.40;;;11.00;99.90;;;;;;4974010;28;20109;-58
2022/12/15 02:58:56;;;;;;;13.70;7.88;;;10.90;99.90;;;;;;4973598;28;20034;-58
2022/12/15 03:01:52;;;;;;;13.88;7.95;;;10.90;99.90;;;;;;4973264;28;20043;-58
2022/12/15 03:04:19;;;;;;;14.18;8.30;;;11.00;99.90;;;;;;4973585;28;20476;-58
2022/12/15 03:06:45;;;;;;;12.70;7.80;;;11.00;99.90;;;;;;4973494;28;20019;-58
2022/12/15 03:09:11;;;;;;;12.68;7.75;;;10.90;99.90;;;;;;4973387;28;20033;-58
2022/12/15 03:11:37;;;;;;;8.32;6.60;;;10.90;99.90;;;;;;4973658;28;20023;-58
2022/12/15 03:14:03;;;;;;;15.90;8.13;;;10.90;99.90;;;;;;4973392;28;20065;-57
2022/12/15 03:16:28;;;;;;;11.75;7.18;;;10.90;99.90;;;;;;4973277;28;20106;-58
2022/12/15 03:18:54;;;;;;;9.40;6.65;;;10.90;99.90;;;;;;4973040;28;20038;-57
2022/12/15 03:21:20;;;;;;;10.25;7.15;;;10.90;99.90;;;;;;4973026;28;20058;-57
2022/12/15 03:23:45;;;;;;;10.63;7.32;;;10.90;99.90;;;;;;4973419;28;20023;-58
2022/12/15 03:26:11;;;;;;;11.65;6.10;;;10.90;99.90;;;;;;4973613;28;20046;-58
2022/12/15 03:28:37;;;;;;;9.60;6.40;;;10.90;99.90;;;;;;4975490;28;20551;-57
2022/12/15 03:31:03;;;;;;;10.15;6.35;;;10.90;99.90;;;;;;4973090;28;20035;-57
2022/12/15 03:33:28;;;;;;;10.02;6.72;;;10.90;99.90;;;;;;4973163;28;20023;-57
2022/12/15 03:35:54;;;;;;;10.05;6.45;;;10.90;99.90;;;;;;4973545;28;20031;-58
2022/12/15 03:38:20;;;;;;;9.52;6.30;;;10.80;99.90;;;;;;4973254;28;20041;-58
2022/12/15 03:40:46;;;;;;;7.68;6.30;;;10.90;99.90;;;;;;4972899;28;20027;-58
2022/12/15 03:43:11;;;;;;;8.60;6.07;;;10.80;99.90;;;;;;4972929;28;20085;-57
2022/12/15 03:45:37;;;;;;;10.40;6.03;;;10.80;99.90;;;;;;4972888;28;20031;-58
2022/12/15 03:48:03;;;;;;;9.90;6.28;;;10.90;99.90;;;;;;4971377;28;20030;-58
2022/12/15 03:50:29;;;;;;;9.15;6.32;;;10.80;99.90;;;;;;4973137;28;20023;-58
2022/12/15 03:52:58;;;;;;;8.75;6.43;;;10.80;99.90;;;;;;4973594;28;20047;-59
2022/12/15 03:55:24;;;;;;;11.68;6.10;;;10.80;99.90;;;;;;4973174;28;20502;-58
2022/12/15 03:57:51;;;;;;;7.68;5.90;;;10.80;99.90;;;;;;4973181;28;20422;-58
2022/12/15 04:00:19;;;;;;;7.57;5.45;;;10.70;99.90;;;;;;4972664;28;20083;-57
2022/12/15 04:02:46;;;;;;;10.27;5.85;;;10.70;99.90;;;;;;4973132;28;20070;-58
2022/12/15 04:05:29;;;;;;;10.35;6.00;;;10.80;99.90;;;;;;4976732;28;20113;-58
2022/12/15 04:07:56;;;;;;;10.55;6.13;;;10.70;99.90;;;;;;4976569;28;20384;-58
2022/12/15 04:10:24;;;;;;;7.32;6.13;;;10.80;99.90;;;;;;4976876;28;20027;-58
2022/12/15 04:13:05;;;;;;;9.68;6.00;;;10.70;99.90;;;;;;4976260;28;20081;-58
2022/12/15 04:15:32;;;;;;;7.88;6.10;;;10.70;99.90;;;;;;4976468;28;20035;-58
2022/12/15 04:18:01;;;;;;;9.40;5.63;;;10.70;99.90;;;;;;4976439;28;20023;-58
2022/12/15 04:20:28;;;;;;;8.85;5.18;;;10.70;99.90;;;;;;4976332;28;20034;-57
2022/12/15 04:22:53;;;;;;;7.22;4.95;;;10.70;99.90;;;;;;4976552;28;20110;-58
2022/12/15 05:34:10;;;;;;;6.63;5.95;;;10.60;99.90;;;;;;4975349;28;19952;-58
2022/12/15 05:36:36;;;;;;;8.40;6.68;;;10.60;99.90;;;;;;4975028;28;20110;-58
2022/12/15 05:39:02;;;;;;;9.30;6.55;;;10.60;99.90;;;;;;4974960;28;20023;-60
2022/12/15 05:41:28;;;;;;;7.00;6.22;;;10.60;99.90;;;;;;4975061;28;20043;-58
2022/12/15 05:43:53;;;;;;;8.00;6.68;;;10.60;99.90;;;;;;4974641;28;20015;-58
2022/12/15 05:46:19;;;;;;;7.28;6.50;;;10.60;99.90;;;;;;4974818;28;20031;-58
2022/12/15 05:48:45;;;;;;;8.10;6.43;;;10.60;99.90;;;;;;4974770;28;20027;-58
2022/12/15 05:51:11;;;;;;;8.20;6.40;;;10.60;99.90;;;;;;4974676;28;20531;-57
2022/12/15 05:53:39;;;;;;;6.10;5.50;;;10.60;99.90;;;;;;4974597;28;20077;-58
2022/12/15 05:56:07;;;;;;;6.00;5.43;;;10.60;99.90;;;;;;4974877;28;20034;-58
2022/12/15 05:58:33;;;;;;;6.07;5.10;;;10.60;99.90;;;;;;4974144;28;20073;-58
2022/12/15 06:01:08;;;;;;;7.00;4.63;;;10.60;99.90;;;;;;4974450;28;20050;-58
2022/12/15 06:03:33;;;;;;;6.10;5.05;;;10.60;99.90;;;;;;4974843;28;20099;-58
2022/12/15 06:06:00;;;;;;;6.18;5.18;;;10.60;99.90;;;;;;4974365;28;20118;-57
2022/12/15 06:08:30;;;;;;;6.03;5.07;;;10.60;99.90;;;;;;4974357;28;20029;-58
2022/12/15 06:10:56;;;;;;;6.20;5.00;;;10.60;99.90;;;;;;4974323;28;20023;-58
2022/12/15 06:13:23;;;;;;;5.25;4.75;;;10.60;99.90;;;;;;4974150;28;20034;-58
2022/12/15 06:16:12;;;;;;;5.50;5.03;;;10.60;99.90;;;;;;4974679;28;20033;-58
2022/12/15 06:18:43;;;;;;;5.90;4.70;;;10.60;99.90;;;;;;4974224;28;20023;-58
2022/12/15 06:21:11;;;;;;;5.43;4.70;;;10.60;99.90;;;;;;4974102;28;20492;-58
2022/12/15 06:23:37;;;;;;;8.82;4.70;;;10.60;99.90;;;;;;4974072;28;20023;-57
2022/12/15 06:26:24;;;;;;;5.70;4.60;;;10.60;99.90;;;;;;4973190;28;20078;-58
2022/12/15 06:28:51;;;;;;;7.20;4.65;;;10.60;99.90;;;;;;4976413;28;20023;-58
2022/12/15 06:31:21;;;;;;;5.82;4.60;;;10.60;99.90;;;;;;4974269;28;20027;-57
2022/12/15 06:33:48;;;;;;;4.85;4.40;;;10.60;99.90;;;;;;4973918;28;20038;-58
2022/12/15 06:36:15;;;;;;;7.38;4.63;;;10.60;99.90;;;;;;4974307;28;20042;-58
2022/12/15 06:38:44;;;;;;;6.10;4.65;;;10.60;99.90;;;;;;4973004;28;20050;-57
2022/12/15 06:41:13;;;;;;;7.50;4.57;;;10.60;99.90;;;;;;4973706;28;20407;-58
2022/12/15 06:43:39;;;;;;;6.35;4.93;;;10.60;99.90;;;;;;4973515;28;20106;-58
2022/12/15 06:46:05;;;;;;;6.35;4.40;;;10.60;99.90;;;;;;4973441;28;20031;-58
2022/12/15 06:48:31;;;;;;;6.78;5.22;;;10.60;99.90;;;;;;4973653;28;20037;-58
2022/12/15 06:51:05;;;;;;;5.60;4.30;;;10.60;99.90;;;;;;4973921;28;20110;-58
2022/12/15 06:53:35;;;;;;;5.15;4.65;;;10.60;99.90;;;;;;4973559;28;20042;-58
2022/12/15 06:56:03;;;;;;;7.30;4.65;;;10.60;99.90;;;;;;4973235;28;20114;-57
2022/12/15 06:58:29;;;;;;;5.68;4.88;;;10.60;99.90;;;;;;4973910;28;20472;-58
2022/12/15 07:00:55;;;;;;;6.20;5.15;;;10.60;99.90;;;;;;4973281;28;20172;-58
2022/12/15 07:03:21;;;;;;;10.25;5.50;;;10.60;99.90;;;;;;4973468;28;20488;-58
2022/12/15 07:05:47;;;;;;;5.65;5.00;;;10.70;99.90;;;;;;4973454;28;20042;-58
2022/12/15 07:08:15;;;;;;;7.20;5.20;;;10.60;99.90;;;;;;4973456;28;20114;-58
2022/12/15 07:10:42;;;;;;;6.65;4.53;;;10.70;99.90;;;;;;4973364;28;20034;-58
2022/12/15 07:13:12;;;;;;;9.23;5.53;;;10.70;99.90;;;;;;4973327;28;20089;-58
2022/12/15 07:15:39;;;;;;;5.50;4.97;;;10.60;99.90;;;;;;4973489;28;20386;-58
2022/12/15 07:18:06;;;;;;;5.82;5.13;;;10.70;99.90;;;;;;4973453;28;20041;-58
2022/12/15 07:20:32;;;;;;;5.72;5.03;;;10.70;99.90;;;;;;4973162;28;20038;-58
2022/12/15 07:22:59;;;;;;;5.20;4.80;;;10.60;99.90;;;;;;4973229;28;20039;-58
2022/12/15 07:25:25;;;;;;;6.75;5.25;;;10.60;99.90;;;;;;4973074;28;20055;-58
2022/12/15 07:27:51;;;;;;;6.40;5.10;;;10.60;99.90;;;;;;4975513;28;20130;-58
2022/12/15 07:30:17;;;;;;;7.40;5.45;;;10.60;99.90;;;;;;4973150;28;20097;-58
2022/12/15 07:32:43;;;;;;;6.93;5.20;;;10.60;99.90;;;;;;4971925;28;20089;-58
2022/12/15 07:35:09;;;;;;;5.90;5.03;;;10.60;99.90;;;;;;4973592;28;20439;-58
2022/12/15 07:37:35;;;;;;;7.25;5.70;;;10.60;99.90;;;;;;4973074;28;20026;-58
2022/12/15 07:40:01;;;;;;;8.05;6.00;;;10.60;99.90;;;;;;4976537;28;20043;-58
2022/12/15 07:42:31;;;;;;;7.88;7.00;;;10.60;99.90;;;;;;4977185;28;20027;-58
2022/12/15 07:44:57;;;;;;;7.07;6.38;;;10.60;99.90;;;;;;4977047;28;20101;-58
2022/12/15 07:47:23;;;;;;;7.47;6.68;;;10.60;99.90;;;;;;4977056;28;20118;-58
2022/12/15 07:49:49;;;;;;;7.35;6.32;;;10.60;99.90;;;;;;4976852;28;20030;-58
2022/12/15 07:52:15;;;;;;;7.45;6.32;;;10.60;99.90;;;;;;4977279;28;20031;-58
2022/12/15 07:54:40;;;;;;;9.73;8.73;;;10.60;99.90;;;;;;4976611;28;20027;-57
2022/12/15 07:57:06;;;;;;;10.63;9.63;;;10.60;99.90;;;;;;4976876;28;20035;-57
2022/12/15 07:59:33;;;;;;;9.32;7.82;;;10.60;99.90;;;;;;4976773;28;20030;-58
2022/12/15 08:02:00;;;;;;;9.35;6.75;;;10.60;99.90;;;;;;4976976;28;20043;-57
2022/12/15 08:04:26;;;;;;;7.03;6.43;;;10.60;99.90;;;;;;4976726;28;20491;-58
2022/12/15 08:06:55;;;;;;;8.40;7.40;;;10.70;99.90;;;;;;4976563;28;20030;-58
2022/12/15 08:09:21;;;;;;;9.95;8.88;;;10.60;99.90;;;;;;4976136;28;20027;-58
2022/12/15 08:11:47;;;;;;;7.55;6.53;;;10.70;99.90;;;;;;4976447;28;20038;-58
2022/12/15 08:14:14;;;;;;;7.20;6.50;;;10.70;99.90;;;;;;4976855;28;20115;-58
2022/12/15 08:16:39;;;;;;;7.65;6.93;;;10.70;99.90;;;;;;4976531;28;20053;-58
2022/12/15 08:19:06;;;;;;;9.95;7.80;;;10.70;99.90;;;;;;4976382;28;20495;-57
2022/12/15 08:21:32;;;;;;;8.35;7.53;;;10.70;99.90;;;;;;4975399;28;20109;-58
2022/12/15 08:23:59;;;;;;;7.88;7.10;;;10.70;99.90;;;;;;4976243;28;20428;-58
2022/12/15 08:26:25;;;;;;;9.00;7.47;;;10.70;99.90;;;;;;4976037;28;20075;-58
2022/12/15 08:28:51;;;;;;;10.07;8.23;;;10.80;99.90;;;;;;4978841;28;20041;-58
2022/12/15 08:31:20;;;;;;;9.40;7.97;;;10.80;99.90;;;;;;4976044;28;20121;-58
2022/12/15 08:33:46;;;;;;;9.88;8.65;;;10.80;99.90;;;;;;4976042;28;20015;-58
2022/12/15 08:36:15;;;;;;;10.23;8.43;;;10.80;99.90;;;;;;4976087;28;20404;-58
2022/12/15 08:38:42;;;;;;;9.73;8.70;;;10.80;99.90;;;;;;4975873;28;20479;-58
2022/12/15 08:41:13;;;;;;;11.15;9.43;;;10.80;99.90;;;;;;4975698;28;20034;-54
2022/12/15 08:43:39;;;;;;;10.82;9.65;;;10.80;99.90;;;;;;4976082;28;20501;-58
2022/12/15 08:46:05;;;;;;;12.32;10.15;;;10.80;99.90;;;;;;4975860;28;20063;-57
2022/12/15 08:48:31;;;;;;;11.63;9.80;;;10.80;99.90;;;;;;4975647;28;20027;-58
2022/12/15 08:50:58;;;;;;;12.55;10.30;;;10.80;99.90;;;;;;4974830;28;20045;-58
2022/12/15 08:53:24;;;;;;;11.45;10.23;;;10.90;99.90;;;;;;4975170;28;20506;-58
2022/12/15 08:55:50;;;;;;;11.15;10.05;;;10.90;99.90;;;;;;4975843;28;20031;-58
2022/12/15 08:58:16;;;;;;;10.52;9.48;;;10.90;99.90;;;;;;4975348;28;20175;-58
2022/12/15 09:00:42;;;;;;;12.10;10.80;;;10.90;99.90;;;;;;4975435;28;20043;-55
2022/12/15 09:03:08;;;;;;;11.95;10.75;;;10.90;99.90;;;;;;4975230;28;20019;-57
2022/12/15 09:05:35;;;;;;;12.07;10.20;;;10.90;99.90;;;;;;4975294;28;20042;-56
2022/12/15 09:08:01;;;;;;;10.85;9.65;;;10.90;99.90;;;;;;4975556;28;20484;-55
2022/12/15 09:10:27;;;;;;;12.60;10.13;;;10.90;99.90;;;;;;4975250;28;20110;-55
2022/12/15 09:12:52;;;;;;;11.43;10.32;;;10.90;99.90;;;;;;4975448;28;20153;-56
2022/12/15 09:15:18;;;;;;;10.88;9.65;;;10.90;99.90;;;;;;4975288;28;20046;-57
2022/12/15 09:17:46;;;;;;;11.18;9.85;;;11.00;99.90;;;;;;4975416;28;20022;-57
2022/12/15 09:20:13;;;;;;;11.52;9.98;;;10.90;99.90;;;;;;4974919;28;20114;-57
2022/12/15 09:22:42;;;;;;;10.90;9.75;;;11.00;99.90;;;;;;4974963;28;20027;-57
2022/12/15 09:25:08;;;;;;;10.45;9.30;;;11.00;99.90;;;;;;4974959;28;20051;-57
2022/12/15 09:27:34;;;;;;;11.10;9.70;;;11.00;99.90;;;;;;4977364;28;20457;-58
2022/12/15 09:30:03;;;;;;;13.65;10.10;;;11.00;99.90;;;;;;4974958;28;20019;-57
2022/12/15 09:32:29;;;;;;;12.60;9.73;;;11.00;99.90;;;;;;4974665;28;20030;-58
2022/12/15 09:34:55;;;;;;;11.20;8.85;;;11.10;99.90;;;;;;4973495;28;20026;-57
2022/12/15 09:37:20;;;;;;;10.13;8.30;;;11.30;99.90;;;;;;4974179;28;20113;-58
2022/12/15 09:39:46;;;;;;;9.82;8.50;;;11.50;99.90;;;;;;4974922;28;20361;-58
2022/12/15 09:42:25;;;;;;;9.85;8.18;;;12.00;99.90;;;;;;4974624;28;20034;-58
2022/12/15 09:45:06;;;;;;;8.77;7.45;;;12.40;99.90;;;;;;4974820;28;20022;-58
2022/12/15 09:47:55;;;;;;;7.07;6.38;;;13.50;99.90;;;;;;4974645;28;20038;-58
2022/12/15 09:50:28;;;;;;;6.57;5.88;;;13.60;99.90;;;;;;4974413;28;20078;-58
2022/12/15 09:52:59;;;;;;;6.85;5.47;;;14.40;99.90;;;;;;4974877;28;20054;-58
2022/12/15 09:55:27;;;;;;;7.18;6.47;;;13.20;99.90;;;;;;4975026;28;20434;-58
2022/12/15 09:57:58;;;;;;;7.82;6.05;;;13.10;99.90;;;;;;4974583;28;20050;-58
2022/12/15 10:00:29;;;;;;;8.63;6.28;;;12.50;99.90;;;;;;4973988;28;20031;-58
2022/12/15 10:03:16;;;;;;;8.27;6.38;;;12.30;99.90;;;;;;4974753;28;20035;-58
2022/12/15 10:05:51;;;;;;;7.72;5.90;;;12.10;99.90;;;;;;4974437;28;20023;-58
2022/12/15 10:08:19;;;;;;;10.35;8.23;;;12.20;99.90;;;;;;4974405;28;20507;-59
2022/12/15 10:10:56;;;;;;;9.75;7.53;;;12.40;99.90;;;;;;4974226;28;20377;-59
2022/12/15 10:13:55;;;;;;;11.32;9.05;;;12.70;99.90;;;;;;4974267;28;20385;-58
2022/12/15 10:16:45;;;;;;;9.82;6.45;;;12.90;99.90;;;;;;4974308;28;20488;-58
2022/12/15 10:19:12;;;;;;;7.18;6.47;;;13.10;99.90;;;;;;4973932;28;20038;-58
2022/12/15 10:21:38;;;;;;;7.70;5.97;;;13.10;99.90;;;;;;4974460;28;20094;-58
2022/12/15 10:24:18;;;;;;;7.30;5.68;;;12.90;99.90;;;;;;4974003;28;20027;-58
2022/12/15 10:26:53;;;;;;;10.15;7.43;;;12.70;99.90;;;;;;4973963;28;20051;-58
2022/12/15 10:29:32;;;;;;;7.35;6.22;;;12.50;99.90;;;;;;4976341;28;20030;-59
2022/12/15 10:32:04;;;;;;;10.07;7.30;;;12.30;99.90;;;;;;4973858;28;20052;-58
2022/12/15 10:34:36;;;;;;;7.80;7.00;;;12.20;99.90;;;;;;4974386;28;20443;-58
2022/12/15 10:37:02;;;;;;;8.10;6.10;;;12.20;99.90;;;;;;4973667;28;20030;-58
2022/12/15 10:39:39;;;;;;;7.18;6.07;;;12.30;99.90;;;;;;4974185;28;20105;-58
2022/12/15 10:42:23;;;;;;;8.55;6.65;;;12.40;99.90;;;;;;4973730;28;20039;-59
2022/12/15 10:44:55;;;;;;;8.93;5.95;;;12.60;99.90;;;;;;4973498;28;20433;-56
2022/12/15 10:47:30;;;;;;;7.75;5.82;;;12.80;99.90;;;;;;4973314;28;20031;-56
2022/12/15 10:50:16;;;;;;;7.55;5.80;;;12.60;99.90;;;;;;4973773;28;20038;-57
2022/12/15 10:52:42;;;;;;;6.15;5.50;;;12.60;99.90;;;;;;4973940;28;20074;-58
2022/12/15 10:55:37;;;;;;;7.95;5.50;;;12.50;99.90;;;;;;4973817;28;20026;-55
2022/12/15 10:58:16;;;;;;;9.38;5.65;;;12.40;99.90;;;;;;4973772;28;20130;-57
2022/12/15 11:00:42;;;;;;;7.10;5.80;;;12.50;99.90;;;;;;4973147;28;20041;-57
2022/12/15 11:03:22;;;;;;;7.03;5.85;;;12.50;99.90;;;;;;4973559;28;20038;-57
2022/12/15 11:05:53;;;;;;;9.02;6.38;;;12.60;99.90;;;;;;4973778;28;20077;-57
2022/12/15 11:08:21;;;;;;;9.25;5.88;;;12.50;99.90;;;;;;4973626;28;20365;-58
2022/12/15 11:13:34;;;;;;;7.07;5.53;;;12.40;99.90;;;;;;4973281;28;20332;-58
2022/12/15 11:16:16;;;;;;;10.27;5.32;;;12.50;99.90;;;;;;4972495;28;20023;-58
2022/12/15 11:19:09;;;;;;;6.25;5.65;;;12.60;99.90;;;;;;4972982;28;20105;-57
2022/12/15 11:21:46;;;;;;;6.47;5.73;;;12.70;99.90;;;;;;4972649;28;20097;-58
2022/12/15 11:24:30;;;;;;;6.18;5.55;;;12.90;99.90;;;;;;4972910;28;20038;-58
2022/12/15 11:27:04;;;;;;;8.02;5.50;;;13.20;99.90;;;;;;4973430;28;20467;-58
2022/12/15 11:29:48;;;;;;;7.18;5.75;;;12.90;99.90;;;;;;4971144;28;20087;-58
2022/12/15 11:32:14;;;;;;;;;;;13.00;99.90;;;;;;4973596;28;20073;-58
2022/12/15 11:34:45;;;;;;;9.65;5.15;;;13.10;99.90;;;;;;4973183;28;19910;-58
2022/12/15 11:37:37;;;;;;;8.55;5.25;;;13.20;99.90;;;;;;4973218;28;20531;-58
2022/12/15 11:40:35;;;;;;;7.43;6.10;;;13.10;99.90;;;;;;4973349;28;20058;-58
2022/12/15 11:43:03;;;;;;;9.57;5.63;;;13.20;99.90;;;;;;4972655;28;20055;-59
2022/12/15 11:45:42;;;;;;;8.48;5.40;;;13.00;99.90;;;;;;4973109;28;20054;-59
2022/12/15 11:48:18;;;;;;;5.80;5.00;;;12.90;99.90;;;;;;4972998;28;20035;-60
2022/12/15 11:50:52;;;;;;;6.05;4.88;;;13.10;99.90;;;;;;4973291;28;20027;-59
2022/12/15 11:53:18;;;;;;;7.13;5.18;;;12.90;99.90;;;;;;4972853;28;20023;-59
2022/12/15 11:56:02;;;;;;;6.28;5.18;;;13.00;99.90;;;;;;4973022;28;20031;-60
2022/12/15 11:58:46;;;;;;;8.25;5.88;;;12.80;99.90;;;;;;4972904;28;20023;-59
2022/12/15 12:01:23;;;;;;;8.25;5.85;;;13.10;99.90;;;;;;4972211;28;20126;-58
2022/12/15 12:04:07;;;;;;;7.43;5.32;;;13.20;99.90;;;;;;4973260;28;20027;-58
2022/12/15 12:06:42;;;;;;;;;;;13.20;99.90;;;;;;4972758;28;20106;-58
2022/12/15 12:09:11;;;;;;;6.82;5.05;;;13.10;99.90;;;;;;4972360;28;19907;-59
2022/12/15 12:11:57;;;;;;;5.70;4.90;;;13.00;99.90;;;;;;4972234;28;20027;-59
2022/12/15 12:14:45;;;;;;;8.10;4.50;;;12.90;99.90;;;;;;4972307;28;20066;-59
2022/12/15 12:17:32;;;;;;;6.28;4.63;;;13.20;99.90;;;;;;4972421;28;20154;-59
2022/12/15 12:20:00;;;;;;;5.10;4.45;;;13.20;99.90;;;;;;4972644;28;20035;-59
2022/12/15 12:22:34;;;;;;;5.43;4.32;;;13.30;99.90;;;;;;4972685;28;20035;-59
2022/12/15 12:25:16;;;;;;;5.10;4.50;;;13.50;99.90;;;;;;4974642;28;20519;-59
2022/12/15 12:27:51;;;;;;;6.65;4.93;;;13.50;99.90;;;;;;4978415;28;20121;-59
2022/12/15 12:30:21;;;;;;;6.68;5.05;;;13.40;99.90;;;;;;4975927;28;20019;-58
2022/12/15 12:32:59;;;;;;;6.10;4.68;;;13.10;99.90;;;;;;4976064;28;20515;-58
2022/12/15 12:35:37;;;;;;;6.05;4.30;;;13.10;99.90;;;;;;4976062;28;20031;-58
2022/12/15 12:38:09;;;;;;;4.80;4.22;;;13.10;99.90;;;;;;4976035;28;20388;-58
2022/12/15 12:41:05;;;;;;;8.17;4.77;;;13.10;99.90;;;;;;4975674;28;20031;-58
2022/12/15 12:43:54;;;;;;;4.72;4.22;;;13.10;99.90;;;;;;4975654;28;20043;-58
2022/12/15 12:46:35;;;;;;;4.57;4.07;;;13.40;99.90;;;;;;4975994;28;20022;-58
2022/12/15 12:49:35;;;;;;;5.72;4.10;;;13.30;99.90;;;;;;4975936;28;20019;-58
2022/12/15 12:52:03;;;;;;;6.60;4.22;;;13.30;99.90;;;;;;4975709;28;20026;-58
2022/12/15 12:54:34;;;;;;;5.30;4.30;;;13.30;99.90;;;;;;4976047;28;20093;-58
2022/12/15 12:57:21;;;;;;;4.65;3.88;;;13.40;99.90;;;;;;4976060;28;20034;-58
2022/12/15 12:59:56;;;;;;;6.93;4.40;;;13.40;99.90;;;;;;4975580;28;20042;-59
2022/12/15 13:02:23;;;;;;;4.43;4.03;;;13.50;99.90;;;;;;4975541;28;20117;-58
2022/12/15 13:04:59;;;;;;;4.65;3.67;;;13.70;99.90;;;;;;4975505;28;20030;-58
2022/12/15 13:07:37;;;;;;;5.38;3.90;;;13.50;99.90;;;;;;4975793;28;20046;-58
2022/12/15 13:10:16;;;;;;;5.90;3.80;;;13.40;99.90;;;;;;4975436;28;20027;-58
2022/12/15 13:12:50;;;;;;;7.00;4.28;;;13.30;99.90;;;;;;4974944;28;20026;-59
2022/12/15 13:15:33;;;;;;;5.65;4.00;;;13.40;99.90;;;;;;4975452;28;20097;-59
2022/12/15 13:18:05;;;;;;;6.37;4.20;;;13.40;99.90;;;;;;4975673;28;20042;-58
2022/12/15 13:20:32;;;;;;;6.88;4.65;;;13.40;99.90;;;;;;4975158;28;20286;-58
2022/12/15 13:23:40;;;;;;;5.85;4.50;;;13.10;99.90;;;;;;4975314;28;20030;-58
2022/12/15 13:26:05;;;;;;;8.75;4.30;;;13.10;99.90;;;;;;4974699;28;20186;-58
2022/12/15 13:28:37;;;;;;;4.60;3.70;;;13.10;99.90;;;;;;4977212;28;20117;-58
2022/12/15 13:31:22;;;;;;;5.22;4.22;;;13.30;99.90;;;;;;4975023;28;20075;-58
2022/12/15 13:33:48;;;;;;;4.88;3.85;;;13.30;99.90;;;;;;4975009;28;20042;-58
2022/12/15 13:36:37;;;;;;;5.78;3.97;;;13.30;99.90;;;;;;4974236;28;20023;-58
2022/12/15 13:39:03;;;;;;;4.82;4.03;;;13.40;99.90;;;;;;4965850;28;20039;-58
2022/12/15 13:41:29;;;;;;;4.00;3.60;;;13.30;99.90;;;;;;4974707;28;20047;-58
2022/12/15 13:43:57;;;;;;;4.80;3.50;;;13.20;99.90;;;;;;4974974;28;20439;-58
2022/12/15 13:46:27;;;;;;;4.75;3.22;;;13.10;99.90;;;;;;4975051;28;20084;-58
2022/12/15 13:49:05;;;;;;;4.95;3.15;;;13.20;99.90;;;;;;4974840;28;20042;-58
2022/12/15 13:51:34;;;;;;;4.57;3.10;;;13.20;99.90;;;;;;4974788;28;20027;-58
2022/12/15 13:54:10;;;;;;;6.07;3.35;;;13.20;99.90;;;;;;4975003;28;20034;-58
2022/12/15 13:56:39;;;;;;;4.25;3.15;;;13.30;99.90;;;;;;4974393;28;20085;-58
2022/12/15 13:59:29;;;;;;;3.90;3.00;;;13.50;99.90;;;;;;4974613;28;20041;-58
2022/12/15 14:01:55;;;;;;;4.97;3.03;;;13.80;99.90;;;;;;4974389;28;20034;-58
2022/12/15 14:04:22;;;;;;;6.50;3.10;;;14.00;99.90;;;;;;4974393;28;20117;-59
2022/12/15 14:06:54;;;;;;;5.22;3.47;;;14.00;99.90;;;;;;4974463;28;20034;-58
2022/12/15 14:09:40;;;;;;;4.57;3.22;;;13.90;99.90;;;;;;4974306;28;20345;-58
2022/12/15 14:12:11;;;;;;;4.50;2.90;;;13.70;99.90;;;;;;4974599;28;20043;-58
2022/12/15 14:14:44;;;;;;;4.72;3.30;;;13.80;99.90;;;;;;4974352;28;20570;-58
2022/12/15 14:17:14;;;;;;;4.00;2.80;;;13.80;99.90;;;;;;4974330;28;20045;-58
2022/12/15 14:19:45;;;;;;;4.80;3.45;;;13.80;99.90;;;;;;4972836;28;20023;-58
2022/12/15 14:22:23;;;;;;;5.47;3.28;;;13.50;99.90;;;;;;4974098;28;20046;-58
2022/12/15 14:24:50;;;;;;;6.88;3.22;;;13.50;99.90;;;;;;4973964;28;20042;-58
2022/12/15 14:27:24;;;;;;;4.78;3.55;;;13.50;99.90;;;;;;4975739;28;20033;-58
2022/12/15 14:30:19;;;;;;;5.00;3.00;;;13.40;99.90;;;;;;4954604;29;20027;-58
2022/12/15 14:32:47;;;;;;;6.85;4.03;;;13.70;99.90;;;;;;4954628;29;20494;-58
2022/12/15 14:35:23;;;;;;;10.75;8.60;;;13.70;99.90;;;;;;4954550;29;20031;-58
2022/12/15 14:37:49;;;;;;;5.70;3.20;;;13.40;99.90;;;;;;4954579;29;20074;-58
2022/12/15 14:40:17;;;;;;;4.72;2.90;;;13.50;99.90;;;;;;4954065;28;20039;-58
2022/12/15 14:42:45;;;;;;;16.45;14.77;;;13.10;99.90;;;;;;4954781;29;20592;-58
2022/12/15 14:45:24;;;;;;;8.25;5.40;;;13.20;99.90;;;;;;4954415;29;20341;-58
2022/12/15 14:48:05;;;;;;;11.18;9.45;;;13.10;99.90;;;;;;4954224;28;20395;-57
2022/12/15 14:50:31;;;;;;;10.80;8.68;;;13.10;99.90;;;;;;4954132;29;20054;-58
2022/12/15 14:53:00;;;;;;;7.70;4.82;;;13.00;99.90;;;;;;4954405;29;20044;-58
2022/12/15 14:55:37;;;;;;;6.80;6.03;;;12.90;99.90;;;;;;4954624;28;20023;-59
2022/12/15 14:58:34;;;;;;;6.03;4.50;;;12.80;99.90;;;;;;4954389;29;20023;-59
2022/12/15 15:01:01;;;;;;;8.07;6.22;;;12.60;99.90;;;;;;4954502;29;20063;-58
2022/12/15 15:03:38;;;;;;;7.45;6.68;;;12.50;99.90;;;;;;4954151;29;20033;-58
2022/12/15 15:06:16;;;;;;;8.73;5.65;;;12.40;99.90;;;;;;4954118;29;20082;-58
2022/12/15 15:08:46;;;;;;;5.95;4.03;;;12.20;99.90;;;;;;4953760;29;20043;-58
2022/12/15 15:11:28;;;;;;;8.55;6.13;;;12.20;99.90;;;;;;4954133;29;20404;-58
2022/12/15 15:13:58;;;;;;;8.70;3.80;;;12.20;99.90;;;;;;4953896;28;20016;-58
2022/12/15 15:16:24;;;;;;;5.07;3.70;;;12.30;99.90;;;;;;4954112;29;20031;-58
2022/12/15 15:18:52;;;;;;;5.13;4.10;;;12.40;99.90;;;;;;4954005;29;20027;-59
2022/12/15 15:21:22;;;;;;;5.22;3.80;;;12.30;99.90;;;;;;4953826;29;20074;-58
2022/12/15 15:24:10;;;;;;;6.15;3.60;;;12.30;99.90;;;;;;4954105;29;20020;-58
2022/12/15 15:26:36;;;;;;;8.38;3.95;;;12.30;99.90;;;;;;4953949;29;20047;-58
2022/12/15 15:29:02;;;;;;;7.28;3.63;;;12.30;99.90;;;;;;4971941;28;20023;-58
2022/12/15 15:31:36;;;;;;;8.85;3.85;;;12.30;99.90;;;;;;4973684;28;20081;-58